Time;durP1;ratioP1;P1;durP2;ratioP2;P2;SDS_P1;SDS_P2;PMS_P1;PMS_P2;Temp;Humidity;BMP_temperature;BMP_pressure;BME280_temperature;BME280_humidity;BME280_pressure;Samples;Min_cycle;Max_cycle;Signal;HPM_P1;HPM_P2
2022/05/27 00:00:17;;;;;;;0.70;0.70;;;;;;;;;;7400807;19;20015;-79
2022/05/27 00:02:43;;;;;;;1.05;0.70;;;;;;;;;;7404204;19;20003;-79
2022/05/27 00:05:09;;;;;;;0.90;0.70;;;;;;;;;;7397691;19;20018;-80
2022/05/27 00:07:35;;;;;;;0.60;0.60;;;;;;;;;;7401916;19;20024;-79
2022/05/27 00:10:00;;;;;;;0.57;0.50;;;;;;;;;;7402487;19;20011;-79
2022/05/27 00:12:26;;;;;;;1.65;0.80;;;;;;;;;;7401903;19;20018;-79
2022/05/27 00:14:51;;;;;;;2.28;0.80;;;;;;;;;;7401105;19;20019;-79
2022/05/27 00:17:16;;;;;;;0.50;0.50;;;;;;;;;;7401018;19;20030;-79
2022/05/27 00:19:42;;;;;;;1.15;0.90;;;;;;;;;;7403139;19;20007;-79
2022/05/27 00:22:08;;;;;;;1.30;0.63;;;;;;;;;;7399917;19;20011;-79
2022/05/27 00:24:33;;;;;;;0.88;0.73;;;;;;;;;;7402737;19;20010;-79
2022/05/27 00:27:01;;;;;;;1.33;0.85;;;;;;;;;;7402358;19;20034;-78
2022/05/27 00:29:26;;;;;;;1.88;0.70;;;;;;;;;;7403391;19;20406;-79
2022/05/27 00:31:51;;;;;;;1.52;0.77;;;;;;;;;;7405231;19;20021;-80
2022/05/27 00:34:16;;;;;;;0.88;0.80;;;;;;;;;;7403944;19;20006;-79
2022/05/27 00:36:42;;;;;;;1.08;0.60;;;;;;;;;;7402994;19;20014;-79
2022/05/27 00:39:07;;;;;;;3.80;1.02;;;;;;;;;;7412898;19;20044;-80
2022/05/27 00:41:32;;;;;;;0.90;0.90;;;;;;;;;;7413296;19;20046;-79
2022/05/27 00:43:58;;;;;;;1.00;0.60;;;;;;;;;;7412507;19;20066;-78
2022/05/27 00:46:30;;;;;;;0.60;0.60;;;;;;;;;;7409291;19;20007;-78
2022/05/27 00:49:04;;;;;;;0.60;0.60;;;;;;;;;;7411528;19;20392;-79
2022/05/27 00:51:34;;;;;;;1.47;0.70;;;;;;;;;;7411975;19;20022;-79
2022/05/27 00:54:14;;;;;;;0.85;0.70;;;;;;;;;;7403632;19;20011;-79
2022/05/27 00:56:42;;;;;;;0.60;0.60;;;;;;;;;;7409448;19;20062;-79
2022/05/27 00:59:14;;;;;;;1.10;0.80;;;;;;;;;;7413011;19;20015;-79
2022/05/27 01:01:40;;;;;;;3.15;0.57;;;;;;;;;;7410438;19;20086;-79
2022/05/27 01:04:07;;;;;;;1.08;0.98;;;;;;;;;;7410273;19;20121;-79
2022/05/27 01:06:32;;;;;;;0.75;0.73;;;;;;;;;;7407948;19;20653;-79
2022/05/27 01:08:57;;;;;;;0.70;0.70;;;;;;;;;;7406857;19;20651;-79
2022/05/27 01:11:30;;;;;;;1.75;1.13;;;;;;;;;;7408175;19;20035;-78
2022/05/27 01:14:14;;;;;;;0.95;0.85;;;;;;;;;;7409121;19;20018;-78
2022/05/27 01:16:58;;;;;;;0.60;0.60;;;;;;;;;;7407671;19;20026;-79
2022/05/27 01:20:19;;;;;;;1.70;0.93;;;;;;;;;;7409476;19;20011;-78
2022/05/27 01:23:03;;;;;;;0.80;0.80;;;;;;;;;;7409686;19;20048;-78
2022/05/27 01:26:06;;;;;;;0.95;0.65;;;;;;;;;;7405384;19;20014;-79
2022/05/27 01:28:55;;;;;;;0.40;0.40;;;;;;;;;;7411775;19;20027;-78
2022/05/27 01:31:27;;;;;;;3.50;1.33;;;;;;;;;;7410138;19;20022;-79
2022/05/27 01:33:58;;;;;;;1.10;0.68;;;;;;;;;;7410771;19;20531;-79
2022/05/27 01:36:55;;;;;;;4.68;0.95;;;;;;;;;;7405546;19;20010;-79
2022/05/27 01:39:24;;;;;;;0.98;0.90;;;;;;;;;;7408518;19;20010;-78
2022/05/27 01:42:14;;;;;;;2.63;1.40;;;;;;;;;;7405696;19;20007;-80
2022/05/27 01:44:59;;;;;;;0.60;0.60;;;;;;;;;;7407367;19;20079;-78
2022/05/27 01:47:36;;;;;;;1.13;0.60;;;;;;;;;;7411317;19;20048;-78
2022/05/27 01:50:11;;;;;;;1.80;0.90;;;;;;;;;;7409486;19;20030;-79
2022/05/27 01:52:49;;;;;;;0.93;0.70;;;;;;;;;;7410330;19;20023;-78
2022/05/27 01:55:24;;;;;;;1.20;0.85;;;;;;;;;;7407024;19;20990;-78
2022/05/27 01:57:54;;;;;;;;;;;;;;;;;;7409932;19;20018;-79
2022/05/27 02:00:26;;;;;;;0.68;0.60;;;;;;;;;;7402424;19;19926;-79
2022/05/27 02:03:35;;;;;;;0.70;0.70;;;;;;;;;;7409065;19;20014;-78
2022/05/27 02:06:15;;;;;;;1.23;0.77;;;;;;;;;;7404289;19;20010;-79
2022/05/27 02:08:53;;;;;;;0.80;0.80;;;;;;;;;;7406979;19;20448;-80
2022/05/27 02:11:21;;;;;;;3.03;0.60;;;;;;;;;;7406673;19;20011;-79
2022/05/27 02:13:50;;;;;;;1.33;0.90;;;;;;;;;;7406604;19;20431;-79
2022/05/27 02:16:27;;;;;;;1.33;0.90;;;;;;;;;;7406342;19;20006;-80
2022/05/27 02:19:10;;;;;;;2.17;0.90;;;;;;;;;;7408557;19;20018;-80
2022/05/27 02:21:41;;;;;;;1.70;1.20;;;;;;;;;;7409333;19;20030;-79
2022/05/27 02:24:37;;;;;;;2.60;1.38;;;;;;;;;;7416601;19;20022;-80
2022/05/27 02:27:29;;;;;;;0.65;0.65;;;;;;;;;;7412261;19;20572;-80
2022/05/27 02:29:59;;;;;;;1.55;0.90;;;;;;;;;;7408930;19;20346;-80
2022/05/27 02:32:32;;;;;;;2.30;1.00;;;;;;;;;;7412989;19;20014;-79
2022/05/27 02:35:10;;;;;;;1.65;0.80;;;;;;;;;;7407934;19;20006;-79
2022/05/27 02:37:53;;;;;;;1.60;1.02;;;;;;;;;;7410154;19;20034;-79
2022/05/27 02:41:04;;;;;;;2.15;0.90;;;;;;;;;;7404876;19;20006;-80
2022/05/27 02:43:30;;;;;;;2.05;1.10;;;;;;;;;;7410515;19;20013;-79
2022/05/27 02:46:41;;;;;;;2.27;1.30;;;;;;;;;;7405876;19;20042;-79
2022/05/27 02:49:25;;;;;;;2.17;1.20;;;;;;;;;;7406887;19;20281;-78
2022/05/27 02:52:05;;;;;;;1.00;1.00;;;;;;;;;;7406907;19;20027;-79
2022/05/27 02:54:47;;;;;;;1.13;1.00;;;;;;;;;;7406154;19;20079;-79
2022/05/27 02:57:24;;;;;;;0.85;0.85;;;;;;;;;;7407490;19;20044;-79
2022/05/27 02:59:52;;;;;;;1.33;1.10;;;;;;;;;;7407306;19;20452;-80
2022/05/27 03:02:17;;;;;;;2.22;0.73;;;;;;;;;;7404201;19;20019;-80
2022/05/27 03:04:46;;;;;;;1.45;1.27;;;;;;;;;;7409284;19;20036;-79
2022/05/27 03:07:30;;;;;;;1.38;0.90;;;;;;;;;;7410063;19;20010;-79
2022/05/27 03:10:14;;;;;;;1.10;1.00;;;;;;;;;;7408085;19;20431;-79
2022/05/27 03:13:11;;;;;;;2.00;1.10;;;;;;;;;;7409405;19;20061;-79
2022/05/27 03:15:59;;;;;;;1.10;1.00;;;;;;;;;;7404079;19;20013;-79
2022/05/27 03:18:48;;;;;;;1.40;0.80;;;;;;;;;;7407687;19;20010;-79
2022/05/27 03:21:23;;;;;;;1.17;1.08;;;;;;;;;;7408943;19;20010;-79
2022/05/27 03:24:25;;;;;;;2.42;0.90;;;;;;;;;;7407809;19;20003;-79
2022/05/27 03:27:00;;;;;;;4.35;1.10;;;;;;;;;;7408903;19;20019;-80
2022/05/27 03:29:31;;;;;;;1.42;1.00;;;;;;;;;;7410945;19;20025;-80
2022/05/27 03:32:08;;;;;;;2.70;1.33;;;;;;;;;;7409443;19;20572;-79
2022/05/27 03:34:41;;;;;;;3.47;1.00;;;;;;;;;;7407905;19;20006;-79
2022/05/27 03:37:22;;;;;;;1.50;1.05;;;;;;;;;;7411523;19;20030;-79
2022/05/27 03:40:01;;;;;;;3.53;1.23;;;;;;;;;;7407809;19;20007;-79
2022/05/27 03:42:28;;;;;;;1.58;1.17;;;;;;;;;;7414071;19;20014;-79
2022/05/27 03:45:13;;;;;;;1.42;1.17;;;;;;;;;;7409159;19;20010;-79
2022/05/27 03:47:40;;;;;;;3.33;1.52;;;;;;;;;;7410063;19;20030;-80
2022/05/27 03:50:06;;;;;;;1.27;0.90;;;;;;;;;;7409605;19;20038;-80
2022/05/27 03:52:41;;;;;;;2.63;1.05;;;;;;;;;;7410594;19;20006;-79
2022/05/27 03:55:09;;;;;;;1.92;0.85;;;;;;;;;;7407072;19;20024;-80
2022/05/27 03:57:34;;;;;;;0.80;0.80;;;;;;;;;;7410257;19;20014;-80
2022/05/27 03:59:59;;;;;;;2.13;0.77;;;;;;;;;;7406059;19;20007;-80
2022/05/27 04:02:24;;;;;;;2.35;0.90;;;;;;;;;;7408422;19;20043;-78
2022/05/27 04:04:50;;;;;;;1.50;1.10;;;;;;;;;;7404837;19;20014;-80
2022/05/27 04:07:15;;;;;;;2.90;0.90;;;;;;;;;;7404135;19;20026;-80
2022/05/27 04:09:41;;;;;;;3.15;0.95;;;;;;;;;;7405046;19;20007;-80
2022/05/27 04:12:07;;;;;;;2.92;0.88;;;;;;;;;;7396770;19;20074;-79
2022/05/27 04:14:32;;;;;;;3.05;0.90;;;;;;;;;;7399001;19;20356;-78
2022/05/27 04:19:42;;;;;;;1.70;0.68;;;;;;;;;;7407752;19;20063;-79
2022/05/27 04:22:07;;;;;;;0.98;0.80;;;;;;;;;;7405318;19;20026;-80
2022/05/27 04:24:33;;;;;;;0.80;0.80;;;;;;;;;;7418183;19;20012;-80
2022/05/27 04:26:59;;;;;;;1.20;0.80;;;;;;;;;;7428595;19;19995;-80
2022/05/27 04:29:24;;;;;;;1.60;1.00;;;;;;;;;;7427707;19;19999;-80
2022/05/27 04:31:49;;;;;;;3.15;1.13;;;;;;;;;;7426098;19;20075;-80
2022/05/27 04:34:14;;;;;;;1.52;0.82;;;;;;;;;;7424267;19;20066;-79
2022/05/27 04:36:40;;;;;;;2.08;1.02;;;;;;;;;;7408956;19;20042;-78
2022/05/27 04:39:05;;;;;;;2.40;0.90;;;;;;;;;;7402422;19;20466;-78
2022/05/27 04:41:30;;;;;;;1.17;0.90;;;;;;;;;;7402591;19;20026;-78
2022/05/27 04:43:56;;;;;;;1.73;0.90;;;;;;;;;;7403004;19;20340;-78
2022/05/27 04:46:21;;;;;;;1.42;1.15;;;;;;;;;;7399998;19;20026;-79
2022/05/27 04:48:49;;;;;;;1.75;0.70;;;;;;;;;;7404633;19;20014;-78
2022/05/27 04:51:14;;;;;;;3.10;1.17;;;;;;;;;;7402573;19;20356;-79
2022/05/27 04:53:40;;;;;;;1.45;0.95;;;;;;;;;;7399817;19;20006;-78
2022/05/27 04:56:08;;;;;;;1.33;1.15;;;;;;;;;;7393447;19;20018;-79
2022/05/27 04:58:33;;;;;;;2.20;1.02;;;;;;;;;;7396354;19;20010;-80
2022/05/27 05:00:59;;;;;;;1.33;1.00;;;;;;;;;;7396710;19;20034;-80
2022/05/27 05:03:24;;;;;;;2.22;0.80;;;;;;;;;;7396569;19;20411;-78
2022/05/27 05:05:50;;;;;;;0.70;0.68;;;;;;;;;;7392403;19;20074;-79
2022/05/27 05:08:33;;;;;;;0.90;0.80;;;;;;;;;;7395693;19;20002;-79
2022/05/27 05:11:01;;;;;;;3.35;0.60;;;;;;;;;;7392755;19;20471;-78
2022/05/27 05:13:27;;;;;;;0.50;0.50;;;;;;;;;;7394025;19;20006;-80
2022/05/27 05:15:53;;;;;;;2.30;0.70;;;;;;;;;;7389203;19;20039;-78
2022/05/27 05:18:18;;;;;;;2.45;0.70;;;;;;;;;;7393792;19;20014;-80
2022/05/27 05:20:43;;;;;;;1.70;0.98;;;;;;;;;;7394434;19;20058;-79
2022/05/27 05:23:09;;;;;;;1.27;0.80;;;;;;;;;;7397658;19;20015;-78
2022/05/27 05:25:34;;;;;;;0.77;0.57;;;;;;;;;;7385408;19;20549;-78
2022/05/27 05:28:01;;;;;;;1.20;0.90;;;;;;;;;;7391404;19;20023;-78
2022/05/27 05:30:27;;;;;;;1.95;0.90;;;;;;;;;;7387250;19;20031;-78
2022/05/27 05:32:53;;;;;;;2.03;0.90;;;;;;;;;;7387330;19;20007;-80
2022/05/27 05:35:19;;;;;;;1.98;0.88;;;;;;;;;;7389179;19;20003;-78
2022/05/27 05:37:44;;;;;;;1.27;0.88;;;;;;;;;;7391093;19;20481;-78
2022/05/27 05:40:12;;;;;;;1.88;1.17;;;;;;;;;;7391919;19;20006;-78
2022/05/27 05:42:38;;;;;;;1.35;0.88;;;;;;;;;;7390548;19;20010;-78
2022/05/27 05:45:04;;;;;;;3.38;1.05;;;;;;;;;;7391534;19;20009;-78
2022/05/27 05:47:30;;;;;;;1.48;0.90;;;;;;;;;;7395059;19;20033;-78
2022/05/27 05:49:55;;;;;;;1.10;0.90;;;;;;;;;;7395970;19;20719;-78
2022/05/27 05:52:20;;;;;;;2.35;1.20;;;;;;;;;;7393383;19;20498;-78
2022/05/27 05:54:45;;;;;;;1.30;1.10;;;;;;;;;;7393243;19;20455;-78
2022/05/27 05:57:11;;;;;;;3.03;0.98;;;;;;;;;;7391979;19;20002;-78
2022/05/27 05:59:38;;;;;;;1.23;0.93;;;;;;;;;;7392444;19;20486;-78
2022/05/27 06:02:04;;;;;;;2.05;0.73;;;;;;;;;;7394314;19;20111;-78
2022/05/27 06:04:29;;;;;;;1.33;1.02;;;;;;;;;;7393846;19;20015;-78
2022/05/27 06:06:56;;;;;;;1.85;0.88;;;;;;;;;;7396299;19;20014;-79
2022/05/27 06:09:25;;;;;;;1.70;0.80;;;;;;;;;;7396490;19;20419;-78
2022/05/27 06:11:52;;;;;;;3.53;0.90;;;;;;;;;;7398492;19;20029;-78
2022/05/27 06:14:17;;;;;;;1.45;0.88;;;;;;;;;;7395662;19;19998;-78
2022/05/27 06:16:42;;;;;;;1.77;0.90;;;;;;;;;;7394955;19;20030;-78
2022/05/27 06:19:08;;;;;;;6.47;1.00;;;;;;;;;;7397964;19;20025;-78
2022/05/27 06:21:33;;;;;;;2.50;0.70;;;;;;;;;;7395618;19;20356;-78
2022/05/27 06:23:58;;;;;;;1.10;0.95;;;;;;;;;;7398218;19;20014;-78
2022/05/27 06:26:23;;;;;;;0.70;0.60;;;;;;;;;;7394259;19;20034;-78
2022/05/27 06:34:26;;;;;;;3.03;0.82;;;;;;;;;;7396905;19;20006;-78
2022/05/27 06:37:05;;;;;;;0.70;0.70;;;;;;;;;;7394924;19;20037;-78
2022/05/27 06:39:34;;;;;;;3.53;0.88;;;;;;;;;;7393480;19;20014;-78
2022/05/27 06:42:00;;;;;;;1.85;0.80;;;;;;;;;;7395506;19;20328;-78
2022/05/27 06:44:25;;;;;;;1.52;0.93;;;;;;;;;;7386395;19;20014;-78
2022/05/27 06:46:51;;;;;;;3.13;1.00;;;;;;;;;;7394356;19;20018;-78
2022/05/27 06:49:18;;;;;;;0.60;0.60;;;;;;;;;;7397677;19;20406;-78
2022/05/27 06:51:44;;;;;;;1.48;0.70;;;;;;;;;;7395988;19;20034;-78
2022/05/27 06:54:09;;;;;;;4.15;0.80;;;;;;;;;;7395575;19;20014;-78
2022/05/27 06:56:36;;;;;;;1.80;0.80;;;;;;;;;;7396782;19;20359;-78
2022/05/27 06:59:03;;;;;;;1.50;0.80;;;;;;;;;;7397645;19;20007;-78
2022/05/27 07:01:28;;;;;;;1.95;1.13;;;;;;;;;;7398215;19;20045;-78
2022/05/27 07:03:54;;;;;;;0.98;0.70;;;;;;;;;;7397193;19;20006;-78
2022/05/27 07:06:19;;;;;;;1.23;0.55;;;;;;;;;;7394671;19;19999;-78
2022/05/27 07:08:45;;;;;;;1.27;0.70;;;;;;;;;;7395423;19;20002;-78
2022/05/27 07:11:11;;;;;;;2.97;0.90;;;;;;;;;;7396196;19;20485;-79
2022/05/27 07:13:36;;;;;;;1.80;1.05;;;;;;;;;;7398520;19;20022;-78
2022/05/27 07:16:04;;;;;;;1.30;0.80;;;;;;;;;;7391362;19;20143;-78
2022/05/27 07:18:30;;;;;;;2.47;0.80;;;;;;;;;;7397514;19;20023;-79
2022/05/27 07:21:03;;;;;;;1.63;0.90;;;;;;;;;;7394280;19;20444;-78
2022/05/27 07:23:29;;;;;;;2.00;0.90;;;;;;;;;;7394574;19;20026;-78
2022/05/27 07:25:54;;;;;;;0.95;0.70;;;;;;;;;;7389656;19;20349;-78
2022/05/27 07:28:19;;;;;;;3.13;0.65;;;;;;;;;;7391776;19;20019;-78
2022/05/27 07:30:45;;;;;;;2.05;0.60;;;;;;;;;;7390276;19;20427;-78
2022/05/27 07:33:11;;;;;;;1.45;0.70;;;;;;;;;;7391505;19;20018;-79
2022/05/27 07:35:36;;;;;;;1.27;0.63;;;;;;;;;;7390871;19;20026;-78
2022/05/27 07:38:01;;;;;;;4.47;0.75;;;;;;;;;;7390752;19;20045;-79
2022/05/27 07:40:26;;;;;;;3.05;0.70;;;;;;;;;;7387222;19;20052;-79
2022/05/27 07:42:52;;;;;;;0.93;0.55;;;;;;;;;;7393783;19;20003;-79
2022/05/27 07:45:18;;;;;;;2.60;0.70;;;;;;;;;;7389787;19;20650;-78
2022/05/27 07:47:43;;;;;;;3.33;0.70;;;;;;;;;;7390577;19;20002;-79
2022/05/27 07:50:11;;;;;;;1.45;0.80;;;;;;;;;;7392162;19;20026;-78
2022/05/27 07:52:37;;;;;;;6.97;0.80;;;;;;;;;;7396299;19;20007;-78
2022/05/27 07:55:04;;;;;;;1.13;0.60;;;;;;;;;;7407247;19;20138;-79
2022/05/27 07:57:29;;;;;;;1.45;0.65;;;;;;;;;;7392004;19;20011;-79
2022/05/27 07:59:54;;;;;;;1.58;0.80;;;;;;;;;;7392538;19;19994;-79
2022/05/27 08:02:21;;;;;;;4.93;0.57;;;;;;;;;;7390562;19;20466;-79
2022/05/27 08:04:46;;;;;;;1.75;0.82;;;;;;;;;;7391296;19;20081;-79
2022/05/27 08:07:11;;;;;;;1.92;0.57;;;;;;;;;;7392361;19;20047;-78
2022/05/27 08:09:36;;;;;;;1.73;0.90;;;;;;;;;;7393034;19;20002;-79
2022/05/27 08:12:02;;;;;;;3.25;0.80;;;;;;;;;;7390874;19;20024;-79
2022/05/27 08:14:27;;;;;;;2.85;0.68;;;;;;;;;;7389518;19;20010;-79
2022/05/27 08:16:52;;;;;;;0.52;0.50;;;;;;;;;;7390179;19;20010;-78
2022/05/27 08:19:18;;;;;;;1.20;0.50;;;;;;;;;;7392875;19;20003;-78
2022/05/27 08:21:43;;;;;;;2.00;0.80;;;;;;;;;;7387348;19;20009;-78
2022/05/27 08:24:09;;;;;;;1.67;0.60;;;;;;;;;;7388895;19;20006;-78
2022/05/27 08:26:34;;;;;;;1.08;0.57;;;;;;;;;;7391676;19;20143;-78
2022/05/27 08:28:59;;;;;;;3.60;0.90;;;;;;;;;;7391933;19;20454;-78
2022/05/27 08:31:25;;;;;;;1.75;0.73;;;;;;;;;;7388513;19;20002;-78
2022/05/27 08:39:18;;;;;;;1.65;0.70;;;;;;;;;;7391602;19;20033;-78
2022/05/27 08:42:04;;;;;;;1.98;0.80;;;;;;;;;;7389895;19;20086;-78
2022/05/27 08:44:47;;;;;;;1.55;0.77;;;;;;;;;;7389381;19;20021;-78
2022/05/27 08:47:26;;;;;;;1.75;0.60;;;;;;;;;;7388875;19;20042;-78
2022/05/27 08:50:09;;;;;;;1.35;0.60;;;;;;;;;;7390817;19;20086;-78
2022/05/27 08:52:47;;;;;;;1.55;0.85;;;;;;;;;;7389217;19;20115;-79
2022/05/27 09:01:18;;;;;;;1.42;0.70;;;;;;;;;;7392690;19;20034;-78
2022/05/27 09:03:51;;;;;;;1.15;0.68;;;;;;;;;;7394762;19;20078;-78
2022/05/27 09:06:25;;;;;;;2.67;0.70;;;;;;;;;;7394270;19;20125;-79
2022/05/27 09:08:50;;;;;;;3.45;0.88;;;;;;;;;;7397699;19;20006;-78
2022/05/27 09:11:26;;;;;;;1.02;0.70;;;;;;;;;;7397070;19;20684;-78
2022/05/27 09:14:18;;;;;;;1.38;0.80;;;;;;;;;;7395239;19;20011;-78
2022/05/27 09:16:59;;;;;;;4.10;0.90;;;;;;;;;;7395544;19;20010;-78
2022/05/27 09:19:27;;;;;;;2.50;0.70;;;;;;;;;;7394550;19;20118;-78
2022/05/27 09:22:12;;;;;;;2.40;0.60;;;;;;;;;;7396735;19;20021;-78
2022/05/27 09:24:54;;;;;;;1.23;0.68;;;;;;;;;;7394188;19;20010;-78
2022/05/27 09:27:34;;;;;;;1.80;0.70;;;;;;;;;;7397776;19;20023;-78
2022/05/27 09:30:06;;;;;;;1.08;0.70;;;;;;;;;;7394060;19;20518;-78
2022/05/27 09:32:40;;;;;;;1.30;0.68;;;;;;;;;;7397668;19;20344;-78
2022/05/27 09:35:11;;;;;;;2.13;0.82;;;;;;;;;;7395558;19;20026;-78
2022/05/27 09:37:42;;;;;;;1.17;0.60;;;;;;;;;;7396816;19;20485;-78
2022/05/27 09:40:25;;;;;;;1.75;0.68;;;;;;;;;;7397371;19;20036;-78
2022/05/27 09:43:23;;;;;;;1.48;0.60;;;;;;;;;;7399162;19;20011;-78
2022/05/27 09:45:58;;;;;;;6.20;0.60;;;;;;;;;;7390955;19;20506;-78
2022/05/27 09:48:25;;;;;;;3.05;0.73;;;;;;;;;;7398079;19;20031;-78
2022/05/27 09:50:51;;;;;;;2.50;0.75;;;;;;;;;;7397205;19;19999;-78
2022/05/27 09:53:28;;;;;;;1.08;0.40;;;;;;;;;;7398854;19;20450;-78
2022/05/27 09:56:05;;;;;;;0.57;0.55;;;;;;;;;;7392309;19;20074;-78
2022/05/27 09:58:33;;;;;;;1.83;0.75;;;;;;;;;;7398382;19;20045;-78
2022/05/27 10:01:00;;;;;;;2.83;0.88;;;;;;;;;;7394775;19;20475;-78
2022/05/27 10:04:03;;;;;;;0.57;0.57;;;;;;;;;;7392957;19;20014;-78
2022/05/27 10:06:30;;;;;;;1.00;0.60;;;;;;;;;;7393355;19;20475;-78
2022/05/27 10:08:59;;;;;;;1.20;0.80;;;;;;;;;;7397671;19;20010;-78
2022/05/27 10:11:24;;;;;;;1.40;0.70;;;;;;;;;;7392801;19;20009;-78
2022/05/27 10:14:19;;;;;;;0.65;0.60;;;;;;;;;;7394019;19;20038;-78
2022/05/27 10:16:59;;;;;;;0.60;0.60;;;;;;;;;;7393219;19;19999;-78
2022/05/27 10:19:26;;;;;;;1.85;0.70;;;;;;;;;;7395321;19;20010;-78
2022/05/27 10:22:00;;;;;;;1.52;0.70;;;;;;;;;;7392792;19;20007;-78
2022/05/27 10:24:30;;;;;;;1.10;0.38;;;;;;;;;;7383180;19;20011;-78
2022/05/27 10:27:10;;;;;;;1.58;0.60;;;;;;;;;;7394610;19;20011;-78
2022/05/27 10:29:53;;;;;;;0.65;0.60;;;;;;;;;;7396964;19;20132;-78
2022/05/27 10:32:25;;;;;;;2.45;0.65;;;;;;;;;;7396663;19;20009;-78
2022/05/27 10:34:50;;;;;;;1.67;0.63;;;;;;;;;;7395878;19;20014;-79
2022/05/27 10:37:32;;;;;;;0.93;0.73;;;;;;;;;;7397536;19;20002;-78
2022/05/27 10:40:09;;;;;;;3.38;0.80;;;;;;;;;;7394663;19;20018;-78
2022/05/27 10:42:58;;;;;;;1.25;0.77;;;;;;;;;;7396997;19;20007;-78
2022/05/27 10:45:31;;;;;;;1.02;0.80;;;;;;;;;;7391857;19;20021;-78
2022/05/27 10:48:21;;;;;;;0.65;0.65;;;;;;;;;;7412600;19;20003;-78
2022/05/27 10:50:57;;;;;;;3.05;0.98;;;;;;;;;;7396277;19;20682;-79
2022/05/27 10:53:23;;;;;;;2.60;0.63;;;;;;;;;;7395661;19;20015;-79
2022/05/27 10:56:00;;;;;;;2.28;0.80;;;;;;;;;;7394158;19;20086;-78
2022/05/27 11:02:04;;;;;;;2.15;0.70;;;;;;;;;;7397129;19;20029;-79
2022/05/27 11:04:48;;;;;;;0.80;0.80;;;;;;;;;;7394428;19;20006;-78
2022/05/27 11:07:31;;;;;;;1.30;0.90;;;;;;;;;;7396968;19;20018;-79
2022/05/27 11:10:18;;;;;;;0.80;0.70;;;;;;;;;;7397237;19;20838;-79
2022/05/27 11:15:58;;;;;;;3.42;0.95;;;;;;;;;;7413457;19;20018;-79
2022/05/27 11:18:54;;;;;;;1.25;0.98;;;;;;;;;;7424303;19;20006;-79
2022/05/27 11:21:19;;;;;;;1.35;0.73;;;;;;;;;;7421074;19;20018;-79
2022/05/27 11:24:29;;;;;;;2.37;0.70;;;;;;;;;;7424343;19;20006;-79
2022/05/27 11:27:06;;;;;;;5.63;0.80;;;;;;;;;;7399606;19;20386;-79
2022/05/27 11:29:49;;;;;;;3.25;0.70;;;;;;;;;;7396180;19;20010;-79
2022/05/27 11:32:26;;;;;;;2.30;1.00;;;;;;;;;;7395056;19;20023;-78
2022/05/27 11:34:57;;;;;;;4.50;0.90;;;;;;;;;;7396149;19;20010;-79
2022/05/27 11:37:34;;;;;;;2.22;0.63;;;;;;;;;;7395803;19;20032;-78
2022/05/27 11:40:11;;;;;;;2.17;0.90;;;;;;;;;;7394299;19;20014;-78
2022/05/27 11:42:59;;;;;;;1.67;0.77;;;;;;;;;;7395888;19;20002;-79
2022/05/27 11:45:28;;;;;;;1.08;0.60;;;;;;;;;;7391525;19;20633;-78
2022/05/27 11:48:02;;;;;;;1.75;0.75;;;;;;;;;;7395214;19;20005;-79
2022/05/27 11:50:52;;;;;;;1.35;0.60;;;;;;;;;;7395289;19;20005;-79
2022/05/27 11:53:52;;;;;;;1.80;0.70;;;;;;;;;;7395010;19;20024;-78
2022/05/27 11:56:36;;;;;;;2.17;0.80;;;;;;;;;;7393245;19;20106;-79
2022/05/27 11:59:23;;;;;;;3.95;1.00;;;;;;;;;;7394412;19;20482;-79
2022/05/27 12:01:56;;;;;;;1.85;0.75;;;;;;;;;;7394482;19;20010;-79
2022/05/27 12:04:27;;;;;;;0.55;0.50;;;;;;;;;;7394345;19;20070;-79
2022/05/27 12:06:58;;;;;;;2.28;0.70;;;;;;;;;;7394206;19;20014;-79
2022/05/27 12:09:26;;;;;;;1.15;0.50;;;;;;;;;;7395448;19;20060;-79
2022/05/27 12:11:58;;;;;;;1.77;0.77;;;;;;;;;;7395516;19;20017;-79
2022/05/27 12:14:30;;;;;;;2.03;0.88;;;;;;;;;;7394083;19;20006;-79
2022/05/27 12:16:58;;;;;;;2.08;0.80;;;;;;;;;;7392179;19;20046;-79
2022/05/27 12:19:32;;;;;;;1.50;0.70;;;;;;;;;;7391080;19;20011;-78
2022/05/27 12:22:06;;;;;;;0.80;0.60;;;;;;;;;;7389136;19;20023;-79
2022/05/27 12:24:40;;;;;;;1.35;0.80;;;;;;;;;;7393595;19;20100;-79
2022/05/27 12:27:07;;;;;;;1.35;0.80;;;;;;;;;;7395599;19;20042;-79
2022/05/27 12:29:33;;;;;;;0.90;0.73;;;;;;;;;;7394947;19;20009;-79
2022/05/27 12:31:59;;;;;;;2.80;0.70;;;;;;;;;;7391658;19;20022;-79
2022/05/27 12:34:27;;;;;;;1.20;0.60;;;;;;;;;;7400032;19;20451;-79
2022/05/27 12:36:53;;;;;;;0.95;0.68;;;;;;;;;;7401791;19;20336;-79
2022/05/27 12:39:25;;;;;;;1.15;0.70;;;;;;;;;;7398670;19;20467;-79
2022/05/27 12:42:08;;;;;;;1.83;0.60;;;;;;;;;;7401294;19;20003;-81
2022/05/27 12:44:34;;;;;;;1.08;0.60;;;;;;;;;;7398460;19;20169;-82
2022/05/27 12:47:01;;;;;;;1.05;0.60;;;;;;;;;;7400405;19;20017;-81
2022/05/27 12:49:26;;;;;;;3.95;0.88;;;;;;;;;;7399453;19;20090;-80
2022/05/27 12:51:53;;;;;;;1.00;0.47;;;;;;;;;;7400444;19;20116;-79
2022/05/27 12:54:43;;;;;;;3.55;0.68;;;;;;;;;;7400309;19;20014;-78
2022/05/27 13:03:42;;;;;;;2.45;0.85;;;;;;;;;;7396959;19;20011;-81
2022/05/27 13:06:20;;;;;;;2.92;0.70;;;;;;;;;;7394329;19;20013;-78
2022/05/27 13:08:47;;;;;;;0.93;0.75;;;;;;;;;;7400841;19;20034;-80
2022/05/27 13:11:41;;;;;;;3.75;0.75;;;;;;;;;;7397888;19;20021;-77
2022/05/27 13:14:19;;;;;;;0.68;0.45;;;;;;;;;;7391032;19;20019;-78
2022/05/27 13:16:50;;;;;;;2.15;0.60;;;;;;;;;;7398142;19;20170;-79
2022/05/27 13:19:30;;;;;;;0.93;0.60;;;;;;;;;;7398236;19;20093;-78
2022/05/27 13:21:58;;;;;;;0.57;0.45;;;;;;;;;;7398913;19;20110;-77
2022/05/27 13:24:53;;;;;;;0.50;0.50;;;;;;;;;;7397499;19;20013;-78
2022/05/27 13:27:26;;;;;;;0.95;0.55;;;;;;;;;;7395022;19;20006;-79
2022/05/27 13:30:06;;;;;;;3.55;0.60;;;;;;;;;;7394218;19;20003;-79
2022/05/27 13:33:02;;;;;;;2.35;0.77;;;;;;;;;;7395632;19;20346;-79
2022/05/27 13:35:43;;;;;;;0.40;0.40;;;;;;;;;;7392712;19;20006;-79
2022/05/27 13:38:16;;;;;;;2.38;0.75;;;;;;;;;;7396990;19;20014;-79
2022/05/27 13:40:43;;;;;;;2.30;0.70;;;;;;;;;;7392175;19;20349;-80
2022/05/27 13:43:14;;;;;;;3.30;0.93;;;;;;;;;;7393379;19;20011;-79
2022/05/27 13:45:46;;;;;;;0.95;0.60;;;;;;;;;;7391596;19;20014;-80
2022/05/27 13:48:56;;;;;;;2.47;0.60;;;;;;;;;;7397050;19;20007;-80
2022/05/27 13:51:24;;;;;;;0.50;0.50;;;;;;;;;;7399102;19;20050;-80
2022/05/27 13:53:51;;;;;;;4.78;0.88;;;;;;;;;;7396072;19;20032;-79
2022/05/27 13:56:37;;;;;;;0.98;0.50;;;;;;;;;;7398288;19;20027;-79
2022/05/27 13:59:26;;;;;;;1.70;0.50;;;;;;;;;;7405018;19;20010;-79
2022/05/27 14:01:55;;;;;;;1.80;0.77;;;;;;;;;;7402462;19;20002;-78
2022/05/27 14:04:29;;;;;;;0.50;0.50;;;;;;;;;;7404306;19;20633;-79
2022/05/27 14:06:56;;;;;;;1.45;0.70;;;;;;;;;;7401566;19;20034;-78
2022/05/27 14:09:32;;;;;;;1.23;0.60;;;;;;;;;;7395007;19;20006;-78
2022/05/27 14:12:01;;;;;;;0.80;0.70;;;;;;;;;;7394094;19;20006;-78
2022/05/27 14:14:38;;;;;;;2.75;0.60;;;;;;;;;;7393768;19;20123;-79
2022/05/27 14:17:11;;;;;;;1.65;0.70;;;;;;;;;;7397133;19;20452;-79
2022/05/27 14:19:36;;;;;;;1.05;0.65;;;;;;;;;;7399393;19;20030;-78
2022/05/27 14:25:24;;;;;;;0.88;0.68;;;;;;;;;;7390260;19;20003;-80
2022/05/27 14:27:54;;;;;;;1.80;0.50;;;;;;;;;;7388590;19;20027;-79
2022/05/27 14:30:32;;;;;;;1.90;0.63;;;;;;;;;;7393172;19;20097;-80
2022/05/27 14:32:57;;;;;;;3.55;0.85;;;;;;;;;;7408501;19;20107;-79
2022/05/27 14:35:25;;;;;;;1.83;0.40;;;;;;;;;;7410001;19;20018;-80
2022/05/27 14:38:00;;;;;;;2.55;0.55;;;;;;;;;;7402043;19;20014;-82
2022/05/27 14:40:34;;;;;;;3.20;0.70;;;;;;;;;;7393164;19;20014;-81
2022/05/27 14:43:00;;;;;;;1.08;0.70;;;;;;;;;;7392266;19;20014;-81
2022/05/27 14:45:49;;;;;;;1.75;0.60;;;;;;;;;;7390510;19;20429;-80
2022/05/27 14:48:35;;;;;;;0.63;0.63;;;;;;;;;;7393075;19;20014;-79
2022/05/27 14:51:21;;;;;;;1.65;0.80;;;;;;;;;;7392712;19;20046;-80
2022/05/27 14:53:49;;;;;;;1.33;0.60;;;;;;;;;;7392154;19;20002;-80
2022/05/27 14:56:24;;;;;;;1.33;0.90;;;;;;;;;;7382214;19;21064;-78
2022/05/27 14:58:49;;;;;;;1.30;0.57;;;;;;;;;;7385021;19;20027;-79
2022/05/27 15:01:31;;;;;;;3.05;0.88;;;;;;;;;;7377967;19;20643;-79
2022/05/27 15:04:28;;;;;;;0.60;0.57;;;;;;;;;;7386418;19;20741;-81
2022/05/27 15:06:57;;;;;;;2.97;0.90;;;;;;;;;;7387854;19;20013;-82
2022/05/27 15:09:33;;;;;;;1.35;0.90;;;;;;;;;;7388370;19;20403;-80
2022/05/27 15:12:24;;;;;;;1.20;0.70;;;;;;;;;;7390092;19;20006;-81
2022/05/27 15:14:50;;;;;;;1.83;1.10;;;;;;;;;;7385144;19;20379;-80
2022/05/27 15:17:27;;;;;;;1.65;0.77;;;;;;;;;;7389028;19;20013;-80
2022/05/27 15:20:05;;;;;;;4.70;0.75;;;;;;;;;;7381292;19;20003;-80
2022/05/27 15:22:40;;;;;;;1.27;0.60;;;;;;;;;;7383967;19;20017;-80
2022/05/27 15:25:09;;;;;;;0.80;0.50;;;;;;;;;;7378958;19;20010;-80
2022/05/27 15:33:36;;;;;;;0.95;0.68;;;;;;;;;;7380531;19;20010;-83
2022/05/27 15:36:02;;;;;;;1.33;0.60;;;;;;;;;;7379818;19;20034;-80
2022/05/27 15:38:29;;;;;;;0.98;0.60;;;;;;;;;;7381749;19;20022;-80
2022/05/27 15:40:59;;;;;;;1.75;0.65;;;;;;;;;;7381215;19;20118;-81
2022/05/27 15:43:29;;;;;;;4.95;0.80;;;;;;;;;;7379865;19;20017;-79
2022/05/27 15:45:55;;;;;;;1.10;1.00;;;;;;;;;;7377299;19;20015;-80
2022/05/27 15:48:21;;;;;;;1.80;0.80;;;;;;;;;;7377343;19;20015;-80
2022/05/27 15:50:47;;;;;;;0.85;0.50;;;;;;;;;;7377046;19;20098;-79
2022/05/27 15:53:16;;;;;;;1.08;0.60;;;;;;;;;;7378550;19;20042;-79
2022/05/27 15:55:41;;;;;;;0.82;0.43;;;;;;;;;;7375672;19;20141;-80
2022/05/27 15:58:08;;;;;;;0.88;0.60;;;;;;;;;;7377187;19;20673;-80